Time;durP1;ratioP1;P1;durP2;ratioP2;P2;SDS_P1;SDS_P2;PMS_P1;PMS_P2;Temp;Humidity;BMP_temperature;BMP_pressure;BME280_temperature;BME280_humidity;BME280_pressure;Samples;Min_cycle;Max_cycle;Signal;HPM_P1;HPM_P2
2021/09/02 00:02:00;;;;;;;4.87;4.40;;;11.40;99.90;;;;;;466073;255;28149;-70
2021/09/02 00:04:00;;;;;;;4.17;3.80;;;11.30;99.90;;;;;;465946;255;27969;-70
2021/09/02 00:06:02;;;;;;;4.60;4.10;;;11.30;99.90;;;;;;466088;255;28423;-70
2021/09/02 00:08:03;;;;;;;4.63;4.23;;;11.30;99.90;;;;;;466091;255;27891;-70
2021/09/02 00:10:04;;;;;;;4.20;3.80;;;11.30;99.90;;;;;;466120;255;28573;-70
2021/09/02 00:12:05;;;;;;;5.50;4.53;;;11.30;99.90;;;;;;466070;255;28817;-70
2021/09/02 00:14:07;;;;;;;4.90;4.40;;;11.30;99.90;;;;;;466094;254;28783;-70
2021/09/02 00:16:08;;;;;;;6.60;4.80;;;11.30;99.90;;;;;;466096;255;28221;-70
2021/09/02 00:18:09;;;;;;;4.90;4.50;;;11.30;99.90;;;;;;465947;255;28154;-70
2021/09/02 00:20:10;;;;;;;4.47;4.07;;;11.40;99.90;;;;;;465996;255;28119;-71
2021/09/02 00:22:12;;;;;;;4.20;3.80;;;11.40;99.90;;;;;;466088;255;28116;-70
2021/09/02 00:24:13;;;;;;;5.13;4.43;;;11.30;99.90;;;;;;465964;255;28120;-70
2021/09/02 00:26:14;;;;;;;5.10;4.60;;;11.30;99.90;;;;;;466019;255;28298;-70
2021/09/02 00:28:15;;;;;;;4.43;3.80;;;11.20;99.90;;;;;;465820;255;28050;-70
2021/09/02 00:30:17;;;;;;;5.10;4.43;;;11.10;99.90;;;;;;466052;255;28079;-70
2021/09/02 00:32:18;;;;;;;6.30;4.53;;;11.10;99.90;;;;;;466109;255;28363;-70
2021/09/02 00:34:19;;;;;;;5.00;4.50;;;11.10;99.90;;;;;;466116;255;28515;-70
2021/09/02 00:36:20;;;;;;;4.57;4.10;;;11.10;99.90;;;;;;466068;255;28737;-70
2021/09/02 00:38:22;;;;;;;4.53;4.00;;;11.10;99.90;;;;;;466050;255;28709;-70
2021/09/02 00:40:24;;;;;;;5.50;4.80;;;11.10;99.90;;;;;;466123;255;28222;-70
2021/09/02 00:42:24;;;;;;;4.90;4.40;;;11.10;99.90;;;;;;466097;255;27908;-71
2021/09/02 00:44:25;;;;;;;4.43;4.03;;;11.20;99.90;;;;;;466097;255;28079;-70
2021/09/02 00:46:27;;;;;;;4.90;4.10;;;11.20;99.90;;;;;;466035;255;28128;-70
2021/09/02 00:48:28;;;;;;;6.47;5.03;;;11.10;99.90;;;;;;466068;255;28158;-70
2021/09/02 00:50:29;;;;;;;4.30;3.90;;;10.90;99.90;;;;;;466072;255;28138;-70
2021/09/02 00:52:30;;;;;;;3.97;3.67;;;10.60;99.90;;;;;;465995;255;28124;-71
2021/09/02 00:54:32;;;;;;;4.70;4.07;;;10.50;99.90;;;;;;466082;255;28215;-70
2021/09/02 00:56:33;;;;;;;4.33;3.93;;;10.40;99.90;;;;;;466083;255;28149;-70
2021/09/02 00:58:34;;;;;;;5.20;3.97;;;10.40;99.90;;;;;;466092;255;28991;-69
2021/09/02 01:00:35;;;;;;;4.83;4.00;;;10.40;99.90;;;;;;465746;255;28664;-70
2021/09/02 01:02:37;;;;;;;4.20;3.80;;;10.40;99.90;;;;;;466105;255;28734;-70
2021/09/02 01:04:38;;;;;;;4.40;4.00;;;10.40;99.90;;;;;;466032;255;27962;-70
2021/09/02 01:06:39;;;;;;;4.70;4.30;;;10.40;99.90;;;;;;466092;255;28043;-70
2021/09/02 01:08:40;;;;;;;4.40;4.00;;;10.50;99.90;;;;;;465921;255;28106;-70
2021/09/02 01:10:42;;;;;;;4.00;3.70;;;10.50;99.90;;;;;;466127;255;28310;-70
2021/09/02 01:12:43;;;;;;;4.30;3.90;;;10.50;99.90;;;;;;465212;255;27923;-70
2021/09/02 01:14:44;;;;;;;4.27;3.87;;;10.50;99.90;;;;;;466075;255;27907;-70
2021/09/02 01:16:45;;;;;;;4.10;3.70;;;10.50;99.90;;;;;;466093;255;28131;-70
2021/09/02 01:18:47;;;;;;;4.20;3.83;;;10.50;99.90;;;;;;466030;255;28326;-70
2021/09/02 01:20:48;;;;;;;4.47;3.87;;;10.50;99.90;;;;;;466011;255;28491;-70
2021/09/02 01:22:49;;;;;;;4.90;4.50;;;10.50;99.90;;;;;;466031;255;28504;-70
2021/09/02 01:24:51;;;;;;;3.90;3.60;;;10.40;99.90;;;;;;465847;252;28524;-70
2021/09/02 01:26:52;;;;;;;4.33;3.93;;;10.30;99.90;;;;;;466088;255;28484;-70
2021/09/02 01:28:53;;;;;;;4.17;3.60;;;10.10;99.90;;;;;;466011;255;28337;-70
2021/09/02 01:30:54;;;;;;;4.03;3.60;;;10.10;99.90;;;;;;466108;255;28009;-70
2021/09/02 01:32:56;;;;;;;4.60;4.10;;;10.10;99.90;;;;;;465993;255;27911;-69
2021/09/02 01:34:57;;;;;;;4.63;4.13;;;10.00;99.90;;;;;;465984;255;27759;-70
2021/09/02 01:36:58;;;;;;;5.07;4.57;;;10.00;99.90;;;;;;466082;254;27784;-70
2021/09/02 01:38:59;;;;;;;4.50;4.07;;;10.10;99.90;;;;;;466106;255;28050;-70
2021/09/02 01:41:01;;;;;;;6.27;4.37;;;10.00;99.90;;;;;;466082;255;28015;-70
2021/09/02 01:43:02;;;;;;;6.87;4.60;;;10.10;99.90;;;;;;466105;255;28023;-70
2021/09/02 01:45:03;;;;;;;3.67;3.37;;;10.10;99.90;;;;;;466091;255;27652;-70
2021/09/02 01:47:04;;;;;;;5.17;4.70;;;10.10;99.90;;;;;;466079;255;28045;-70
2021/09/02 01:49:06;;;;;;;4.60;3.57;;;10.10;99.90;;;;;;466116;255;28655;-70
2021/09/02 01:51:07;;;;;;;3.93;3.57;;;10.10;99.90;;;;;;465965;255;28423;-70
2021/09/02 01:53:08;;;;;;;4.17;3.77;;;10.10;99.90;;;;;;466086;255;28136;-70
2021/09/02 01:55:09;;;;;;;4.23;3.83;;;10.10;99.90;;;;;;466093;255;27989;-70
2021/09/02 01:57:11;;;;;;;4.00;3.60;;;10.00;99.90;;;;;;466070;255;28480;-70
2021/09/02 01:59:12;;;;;;;5.30;4.00;;;10.00;99.90;;;;;;466135;255;28486;-70
2021/09/02 02:01:13;;;;;;;4.33;3.37;;;10.00;99.90;;;;;;466110;255;28547;-70
2021/09/02 02:03:14;;;;;;;3.60;3.30;;;10.00;99.90;;;;;;466005;255;28137;-70
2021/09/02 02:05:16;;;;;;;4.37;3.97;;;10.00;99.90;;;;;;465937;255;28009;-71
2021/09/02 02:07:17;;;;;;;4.43;3.80;;;10.00;99.90;;;;;;465950;255;28252;-70
2021/09/02 02:09:18;;;;;;;4.43;4.07;;;10.00;99.90;;;;;;465940;255;28256;-70
2021/09/02 02:11:19;;;;;;;3.27;2.97;;;9.90;99.90;;;;;;465778;255;28087;-70
2021/09/02 02:13:21;;;;;;;4.40;4.00;;;9.90;99.90;;;;;;466084;255;27560;-70
2021/09/02 02:15:22;;;;;;;4.80;4.30;;;9.80;99.90;;;;;;466018;255;27997;-69
2021/09/02 02:17:23;;;;;;;4.07;3.67;;;9.80;99.90;;;;;;466080;255;27996;-70
2021/09/02 02:19:24;;;;;;;4.47;4.07;;;9.90;99.90;;;;;;466032;255;28048;-70
2021/09/02 02:21:26;;;;;;;4.30;3.90;;;10.00;99.90;;;;;;466082;255;28176;-70
2021/09/02 02:23:27;;;;;;;5.10;3.80;;;10.00;99.90;;;;;;466044;255;27801;-70
2021/09/02 02:25:28;;;;;;;4.20;3.90;;;10.00;99.90;;;;;;465774;255;29069;-70
2021/09/02 02:27:29;;;;;;;4.97;3.63;;;10.00;99.90;;;;;;466047;255;28671;-70
2021/09/02 02:29:31;;;;;;;4.30;3.90;;;9.90;99.90;;;;;;466076;255;28231;-70
2021/09/02 02:31:32;;;;;;;4.30;3.90;;;9.70;99.90;;;;;;465964;255;28545;-70
2021/09/02 02:33:33;;;;;;;4.00;3.57;;;9.70;99.90;;;;;;466061;255;28045;-70
2021/09/02 02:35:34;;;;;;;4.40;4.00;;;9.70;99.90;;;;;;466109;255;27939;-70
2021/09/02 02:37:36;;;;;;;3.90;3.60;;;9.70;99.90;;;;;;466087;255;27757;-70
2021/09/02 02:39:38;;;;;;;5.47;4.27;;;9.60;99.90;;;;;;466133;255;28126;-70
2021/09/02 02:41:38;;;;;;;4.13;3.83;;;9.50;99.90;;;;;;466118;255;27514;-70
2021/09/02 02:43:39;;;;;;;3.90;3.60;;;9.50;99.90;;;;;;466096;255;27662;-69
2021/09/02 02:45:42;;;;;;;4.10;3.70;;;9.50;99.90;;;;;;465755;255;27711;-70
2021/09/02 02:47:43;;;;;;;4.30;4.00;;;9.50;99.90;;;;;;466095;255;27891;-70
2021/09/02 02:49:44;;;;;;;4.67;4.17;;;9.60;99.90;;;;;;466108;254;28041;-70
2021/09/02 02:51:45;;;;;;;4.30;3.80;;;9.60;99.90;;;;;;466096;255;27560;-70
2021/09/02 02:53:47;;;;;;;3.60;3.30;;;9.50;99.90;;;;;;465557;255;27990;-70
2021/09/02 02:55:48;;;;;;;4.20;3.80;;;9.50;99.90;;;;;;466076;255;28212;-70
2021/09/02 02:57:49;;;;;;;3.90;3.60;;;9.40;99.90;;;;;;466105;249;28581;-70
2021/09/02 02:59:50;;;;;;;4.53;4.13;;;9.40;99.90;;;;;;466084;255;28163;-70
2021/09/02 03:01:52;;;;;;;5.47;3.90;;;9.50;99.90;;;;;;466063;255;28542;-70
2021/09/02 03:03:53;;;;;;;3.90;3.60;;;9.50;99.90;;;;;;466032;255;28586;-70
2021/09/02 03:05:54;;;;;;;6.60;4.10;;;9.50;99.90;;;;;;466103;255;28014;-70
2021/09/02 03:07:55;;;;;;;4.50;3.80;;;9.60;99.90;;;;;;466112;255;27929;-70
2021/09/02 03:09:57;;;;;;;8.13;3.57;;;9.50;99.90;;;;;;465722;255;28145;-70
2021/09/02 03:11:58;;;;;;;4.10;3.70;;;9.60;99.90;;;;;;466119;255;28007;-70
2021/09/02 03:13:59;;;;;;;4.63;3.70;;;9.50;99.90;;;;;;466036;255;27883;-70
2021/09/02 03:16:00;;;;;;;4.03;3.60;;;9.40;99.90;;;;;;466088;255;28001;-70
2021/09/02 03:18:02;;;;;;;4.63;3.80;;;9.30;99.90;;;;;;466113;255;27988;-70
2021/09/02 03:20:03;;;;;;;3.80;3.50;;;9.30;99.90;;;;;;465975;255;27946;-70
2021/09/02 03:22:04;;;;;;;3.60;3.30;;;9.20;99.90;;;;;;466077;255;27939;-70
2021/09/02 03:24:05;;;;;;;3.70;3.40;;;9.20;99.90;;;;;;466065;255;27967;-70
2021/09/02 03:26:07;;;;;;;3.67;3.37;;;9.10;99.90;;;;;;465894;255;28100;-70
2021/09/02 03:28:08;;;;;;;3.70;3.40;;;9.10;99.90;;;;;;466042;255;27801;-70
2021/09/02 03:30:09;;;;;;;3.47;3.17;;;9.20;99.90;;;;;;466095;255;28019;-70
2021/09/02 03:32:10;;;;;;;6.33;4.50;;;9.20;99.90;;;;;;466083;255;28649;-69
2021/09/02 03:34:12;;;;;;;6.13;4.63;;;9.60;99.90;;;;;;466013;255;29279;-70
2021/09/02 03:36:13;;;;;;;6.30;5.00;;;9.80;99.90;;;;;;465987;255;28461;-70
2021/09/02 03:38:14;;;;;;;7.67;5.07;;;9.90;99.90;;;;;;466125;255;28905;-70
2021/09/02 03:40:15;;;;;;;9.03;5.40;;;10.00;99.90;;;;;;465970;255;28592;-70
2021/09/02 03:42:17;;;;;;;8.87;5.90;;;10.20;99.90;;;;;;466046;255;27754;-70
2021/09/02 03:44:18;;;;;;;8.30;5.50;;;10.30;99.90;;;;;;466078;255;27667;-70
2021/09/02 03:46:19;;;;;;;6.93;5.30;;;10.30;99.90;;;;;;466119;254;28034;-70
2021/09/02 03:48:20;;;;;;;6.17;4.90;;;10.20;99.90;;;;;;466127;255;27809;-70
2021/09/02 03:50:22;;;;;;;8.37;5.40;;;10.20;99.90;;;;;;465805;255;27999;-70
2021/09/02 03:52:23;;;;;;;6.77;5.80;;;10.20;99.90;;;;;;466039;255;28024;-70
2021/09/02 03:54:24;;;;;;;5.93;5.20;;;10.20;99.90;;;;;;466052;255;28186;-70
2021/09/02 03:56:25;;;;;;;5.30;4.40;;;10.20;99.90;;;;;;465888;255;27994;-70
2021/09/02 03:58:27;;;;;;;6.07;5.10;;;10.20;99.90;;;;;;466131;255;28013;-70
2021/09/02 04:00:28;;;;;;;5.83;4.90;;;10.20;99.90;;;;;;465863;255;28494;-70
2021/09/02 04:02:29;;;;;;;6.00;4.93;;;10.20;99.90;;;;;;466038;255;28589;-70
2021/09/02 04:04:30;;;;;;;7.20;5.77;;;10.30;99.90;;;;;;466084;254;28460;-70
2021/09/02 04:06:32;;;;;;;8.77;5.97;;;10.30;99.90;;;;;;466095;255;28391;-70
2021/09/02 04:08:33;;;;;;;7.63;5.83;;;10.20;99.90;;;;;;466060;255;28149;-70
2021/09/02 04:10:34;;;;;;;7.07;5.33;;;10.20;99.90;;;;;;465657;255;28123;-70
2021/09/02 04:12:35;;;;;;;7.07;4.97;;;10.20;99.90;;;;;;466112;255;27896;-70
2021/09/02 04:14:37;;;;;;;7.90;4.93;;;10.10;99.90;;;;;;466069;255;28031;-70
2021/09/02 04:16:38;;;;;;;4.93;4.40;;;9.90;99.90;;;;;;466077;255;28091;-70
2021/09/02 04:18:39;;;;;;;4.80;4.40;;;9.70;99.90;;;;;;466127;255;27665;-70
2021/09/02 04:20:40;;;;;;;5.63;5.03;;;9.50;99.90;;;;;;466079;255;27885;-70
2021/09/02 04:22:42;;;;;;;8.53;5.10;;;9.60;99.90;;;;;;466097;255;27913;-70
2021/09/02 04:24:43;;;;;;;4.40;4.00;;;9.60;99.90;;;;;;466086;255;27637;-70
2021/09/02 04:26:44;;;;;;;5.23;4.40;;;9.80;99.90;;;;;;466121;255;28245;-70
2021/09/02 04:28:45;;;;;;;5.77;4.93;;;9.80;99.90;;;;;;466055;255;28134;-70
2021/09/02 04:30:47;;;;;;;6.30;4.90;;;9.90;99.90;;;;;;465974;255;28087;-70
2021/09/02 04:32:48;;;;;;;6.53;5.50;;;10.00;99.90;;;;;;465867;255;28529;-70
2021/09/02 04:34:49;;;;;;;6.50;5.03;;;10.10;99.90;;;;;;465584;255;28975;-70
2021/09/02 04:36:50;;;;;;;7.13;5.67;;;10.10;99.90;;;;;;466048;255;28426;-71
2021/09/02 04:38:52;;;;;;;6.23;5.50;;;10.20;99.90;;;;;;465925;255;28110;-70
2021/09/02 04:40:53;;;;;;;7.03;5.40;;;10.20;99.90;;;;;;466106;255;27992;-69
2021/09/02 04:42:54;;;;;;;7.03;6.00;;;10.20;99.90;;;;;;465955;255;28032;-70
2021/09/02 04:44:57;;;;;;;6.93;6.20;;;10.30;99.90;;;;;;465979;255;28122;-70
2021/09/02 04:46:57;;;;;;;8.70;5.60;;;10.30;99.90;;;;;;466064;255;27904;-70
2021/09/02 04:48:58;;;;;;;9.17;5.53;;;10.30;99.90;;;;;;465931;255;27913;-70
2021/09/02 04:50:59;;;;;;;6.60;5.30;;;10.30;99.90;;;;;;466090;255;27971;-70
2021/09/02 04:53:00;;;;;;;9.80;5.90;;;10.30;99.90;;;;;;466075;255;28200;-70
2021/09/02 04:55:02;;;;;;;8.57;6.03;;;10.30;99.90;;;;;;466064;254;28091;-70
2021/09/02 04:57:03;;;;;;;7.80;5.70;;;10.30;99.90;;;;;;466084;255;28495;-70
2021/09/02 04:59:04;;;;;;;7.70;5.30;;;10.20;99.90;;;;;;466104;255;28411;-70
2021/09/02 05:01:05;;;;;;;7.23;5.67;;;10.20;99.90;;;;;;465974;255;28418;-70
2021/09/02 05:03:07;;;;;;;7.23;5.17;;;10.20;99.90;;;;;;465975;255;27931;-70
2021/09/02 05:05:08;;;;;;;7.73;5.17;;;10.20;99.90;;;;;;466083;255;27633;-70
2021/09/02 05:07:09;;;;;;;6.23;5.20;;;10.20;99.90;;;;;;466078;255;27998;-70
2021/09/02 05:09:10;;;;;;;7.27;5.53;;;10.20;99.90;;;;;;466095;255;28130;-70
2021/09/02 05:11:12;;;;;;;6.67;5.53;;;10.30;99.90;;;;;;465708;255;28019;-70
2021/09/02 05:13:13;;;;;;;9.70;6.60;;;10.40;99.90;;;;;;465918;255;28114;-70
2021/09/02 05:15:14;;;;;;;11.70;7.37;;;10.40;99.90;;;;;;465877;255;28002;-70
2021/09/02 05:17:15;;;;;;;6.47;5.70;;;10.40;99.90;;;;;;466021;255;28048;-70
2021/09/02 05:19:17;;;;;;;7.17;6.03;;;10.20;99.90;;;;;;466101;255;28640;-70
2021/09/02 05:21:18;;;;;;;7.90;6.00;;;9.90;99.90;;;;;;466022;255;28533;-69
2021/09/02 05:23:19;;;;;;;10.43;6.40;;;9.90;99.90;;;;;;466076;255;28569;-70
2021/09/02 05:25:20;;;;;;;6.27;5.40;;;10.00;99.90;;;;;;466013;255;28432;-70
2021/09/02 05:27:22;;;;;;;6.23;5.63;;;9.90;99.90;;;;;;466122;255;28110;-70
2021/09/02 05:29:23;;;;;;;5.90;5.30;;;9.80;99.90;;;;;;466105;255;28029;-70
2021/09/02 05:31:24;;;;;;;7.33;5.13;;;9.70;99.90;;;;;;466117;255;27636;-70
2021/09/02 05:33:25;;;;;;;5.67;5.10;;;9.80;99.90;;;;;;466073;255;28097;-70
2021/09/02 05:35:27;;;;;;;5.87;5.30;;;10.00;99.90;;;;;;466049;255;28037;-70
2021/09/02 05:37:28;;;;;;;5.80;5.20;;;10.10;99.90;;;;;;466110;254;28190;-70
2021/09/02 05:39:29;;;;;;;7.43;6.03;;;10.30;99.90;;;;;;466104;255;27804;-70
2021/09/02 05:41:30;;;;;;;7.30;5.97;;;10.30;99.90;;;;;;465589;255;27765;-70
2021/09/02 05:43:32;;;;;;;7.30;5.87;;;10.20;99.90;;;;;;466029;255;28041;-70
2021/09/02 05:45:33;;;;;;;8.97;5.60;;;10.30;99.90;;;;;;466065;254;28000;-70
2021/09/02 05:47:34;;;;;;;6.07;5.10;;;10.10;99.90;;;;;;466127;255;27999;-70
2021/09/02 05:49:35;;;;;;;6.33;5.67;;;10.10;99.90;;;;;;465917;255;28529;-69
2021/09/02 05:51:37;;;;;;;6.50;5.60;;;10.20;99.90;;;;;;466102;255;28605;-70
2021/09/02 05:53:38;;;;;;;9.80;5.90;;;10.10;99.90;;;;;;466056;255;28766;-70
2021/09/02 05:55:39;;;;;;;9.70;7.17;;;10.50;99.90;;;;;;466044;255;27990;-70
2021/09/02 05:57:40;;;;;;;11.17;8.30;;;10.80;99.90;;;;;;465847;255;28117;-70
2021/09/02 05:59:42;;;;;;;15.33;9.23;;;11.00;99.90;;;;;;466073;255;28232;-70
2021/09/02 06:01:44;;;;;;;10.37;8.50;;;11.10;99.90;;;;;;466036;255;27938;-70
2021/09/02 06:03:44;;;;;;;12.93;8.30;;;11.20;99.90;;;;;;466056;255;27888;-70
2021/09/02 06:05:45;;;;;;;11.70;8.60;;;11.30;99.90;;;;;;466063;255;28124;-70
2021/09/02 06:07:47;;;;;;;12.50;9.43;;;11.30;99.90;;;;;;466100;255;28124;-70
2021/09/02 06:09:48;;;;;;;13.53;9.47;;;11.40;99.90;;;;;;466028;255;28587;-70
2021/09/02 06:11:49;;;;;;;11.60;8.10;;;11.40;99.90;;;;;;466071;255;28557;-70
2021/09/02 06:13:50;;;;;;;11.00;8.30;;;11.50;99.90;;;;;;466041;255;28148;-70
2021/09/02 06:15:52;;;;;;;9.67;8.20;;;11.60;99.90;;;;;;466101;255;28044;-70
2021/09/02 06:17:53;;;;;;;13.03;8.90;;;11.50;99.90;;;;;;465929;255;28145;-70
2021/09/02 06:19:54;;;;;;;10.30;7.80;;;11.60;99.90;;;;;;466077;255;28015;-70
2021/09/02 06:21:55;;;;;;;11.43;8.60;;;11.80;99.90;;;;;;466018;255;28067;-70
2021/09/02 06:23:57;;;;;;;14.70;9.40;;;11.80;99.90;;;;;;466086;255;28149;-70
2021/09/02 06:25:58;;;;;;;12.20;8.30;;;11.80;99.90;;;;;;466102;252;29065;-70
2021/09/02 06:27:59;;;;;;;13.93;8.53;;;12.00;99.90;;;;;;466060;255;28699;-69
2021/09/02 06:30:01;;;;;;;14.77;9.93;;;;;;;;;;466085;255;28736;-70
2021/09/02 06:32:03;;;;;;;18.30;9.30;;;12.10;99.90;;;;;;466075;254;28260;-70
2021/09/02 06:34:04;;;;;;;13.53;8.90;;;12.10;99.90;;;;;;466056;255;28315;-70
2021/09/02 06:36:05;;;;;;;13.63;8.43;;;12.10;99.90;;;;;;466014;255;28286;-70
2021/09/02 06:38:06;;;;;;;12.00;8.57;;;12.20;99.90;;;;;;466008;255;28621;-70
2021/09/02 06:40:08;;;;;;;14.20;8.50;;;12.20;99.90;;;;;;465979;255;28485;-70
2021/09/02 06:42:09;;;;;;;10.23;7.30;;;12.30;99.90;;;;;;466001;255;28472;-70
2021/09/02 06:44:10;;;;;;;12.33;8.07;;;12.30;99.90;;;;;;466057;255;28352;-70
2021/09/02 06:46:11;;;;;;;10.07;7.53;;;12.40;99.90;;;;;;466046;255;28792;-70
2021/09/02 06:48:13;;;;;;;13.30;8.17;;;12.40;99.90;;;;;;466076;255;29064;-70
2021/09/02 06:50:14;;;;;;;10.40;8.23;;;12.50;99.90;;;;;;466128;255;28184;-70
2021/09/02 06:52:15;;;;;;;11.20;8.30;;;12.60;99.90;;;;;;466020;255;28286;-70
2021/09/02 06:54:16;;;;;;;13.10;9.20;;;12.70;99.90;;;;;;466038;255;28476;-70
2021/09/02 06:56:18;;;;;;;10.30;8.43;;;12.80;99.90;;;;;;466066;255;28116;-70
2021/09/02 06:58:19;;;;;;;11.13;7.90;;;12.80;99.90;;;;;;465930;255;28624;-70
2021/09/02 07:00:20;;;;;;;12.03;8.40;;;12.90;99.90;;;;;;466074;255;28961;-70
2021/09/02 07:02:21;;;;;;;11.37;8.53;;;12.90;99.90;;;;;;466072;255;28610;-70
2021/09/02 07:04:23;;;;;;;10.40;8.03;;;13.00;99.90;;;;;;465984;255;29681;-70
2021/09/02 07:06:24;;;;;;;12.80;8.17;;;13.10;99.90;;;;;;466091;255;28871;-70
2021/09/02 07:08:25;;;;;;;12.07;8.10;;;13.10;99.90;;;;;;466066;255;28383;-70
2021/09/02 07:10:26;;;;;;;10.90;8.10;;;13.20;99.90;;;;;;466097;254;28364;-69
2021/09/02 07:12:28;;;;;;;8.90;7.60;;;13.30;99.90;;;;;;466068;255;28997;-69
2021/09/02 07:14:29;;;;;;;10.90;7.73;;;13.40;99.90;;;;;;465912;255;28686;-69
2021/09/02 07:16:30;;;;;;;10.37;7.63;;;13.40;99.90;;;;;;466113;255;28138;-70
2021/09/02 07:18:31;;;;;;;11.30;8.20;;;13.50;99.90;;;;;;466085;255;28258;-70
2021/09/02 07:20:33;;;;;;;13.43;8.03;;;13.50;99.90;;;;;;466033;255;28227;-69
2021/09/02 07:22:34;;;;;;;15.93;8.70;;;13.50;99.90;;;;;;465847;255;28747;-70
2021/09/02 07:24:35;;;;;;;13.33;8.53;;;13.70;99.90;;;;;;466045;255;31254;-70
2021/09/02 07:26:37;;;;;;;10.80;7.27;;;13.70;99.90;;;;;;466089;255;28489;-70
2021/09/02 07:28:38;;;;;;;10.60;7.40;;;13.70;99.90;;;;;;465991;255;28588;-71
2021/09/02 07:30:40;;;;;;;11.93;7.73;;;13.80;99.90;;;;;;465847;255;28242;-70
2021/09/02 07:32:40;;;;;;;9.00;6.83;;;13.90;99.90;;;;;;465969;255;28328;-70
2021/09/02 07:34:43;;;;;;;10.63;7.30;;;14.00;99.90;;;;;;466060;255;28259;-70
2021/09/02 07:36:43;;;;;;;9.30;7.30;;;14.10;99.90;;;;;;465735;255;28243;-70
2021/09/02 07:38:44;;;;;;;10.47;7.70;;;14.10;99.90;;;;;;465981;255;28286;-70
2021/09/02 07:40:45;;;;;;;9.73;7.40;;;14.20;99.90;;;;;;465997;255;28926;-71
2021/09/02 07:42:47;;;;;;;9.60;7.17;;;14.30;99.90;;;;;;465947;255;28852;-70
2021/09/02 07:44:49;;;;;;;8.87;7.37;;;;;;;;;;466034;255;28853;-70
2021/09/02 07:46:50;;;;;;;10.17;7.60;;;14.40;99.90;;;;;;466096;255;26534;-70
2021/09/02 07:48:51;;;;;;;14.53;8.20;;;14.50;99.90;;;;;;466076;255;28243;-70
2021/09/02 07:50:53;;;;;;;9.37;7.40;;;14.60;99.90;;;;;;466089;255;29084;-70
2021/09/02 07:52:54;;;;;;;12.70;7.17;;;14.60;99.90;;;;;;465810;255;29075;-70
2021/09/02 07:54:55;;;;;;;9.63;7.63;;;14.60;99.90;;;;;;466070;255;29107;-70
2021/09/02 07:56:57;;;;;;;9.77;7.07;;;14.70;99.90;;;;;;466114;255;28630;-72
2021/09/02 07:58:58;;;;;;;10.43;7.17;;;14.80;99.90;;;;;;466096;255;28884;-70
2021/09/02 08:00:59;;;;;;;8.37;7.27;;;14.90;99.90;;;;;;466066;255;29099;-70
2021/09/02 08:03:00;;;;;;;7.50;6.03;;;14.80;99.90;;;;;;466077;255;30131;-70
2021/09/02 08:05:02;;;;;;;7.90;6.40;;;15.00;99.90;;;;;;465807;255;28943;-70
2021/09/02 08:07:03;;;;;;;10.07;6.37;;;15.10;99.90;;;;;;466111;255;28921;-70
2021/09/02 08:09:04;;;;;;;7.40;5.83;;;15.20;99.90;;;;;;466072;255;28585;-69
2021/09/02 08:11:05;;;;;;;6.50;5.83;;;15.30;99.90;;;;;;466080;255;28941;-71
2021/09/02 08:13:07;;;;;;;8.17;6.10;;;15.30;99.90;;;;;;466042;255;28629;-72
2021/09/02 08:15:08;;;;;;;6.40;5.80;;;15.40;99.90;;;;;;466108;255;28884;-71
2021/09/02 08:17:09;;;;;;;9.10;6.70;;;15.40;99.90;;;;;;466142;254;29029;-72
2021/09/02 08:19:10;;;;;;;8.47;6.53;;;15.30;99.90;;;;;;466093;255;28575;-70
2021/09/02 08:21:12;;;;;;;9.90;6.53;;;15.30;99.90;;;;;;466034;252;28923;-70
2021/09/02 08:23:13;;;;;;;7.03;6.13;;;15.40;99.90;;;;;;466090;255;29838;-71
2021/09/02 08:25:14;;;;;;;8.53;6.43;;;15.70;99.90;;;;;;466090;254;29402;-69
2021/09/02 08:27:15;;;;;;;8.27;6.50;;;15.80;99.90;;;;;;466084;255;30321;-70
2021/09/02 08:29:17;;;;;;;7.97;6.07;;;15.80;99.90;;;;;;466072;255;29338;-69
2021/09/02 08:31:18;;;;;;;8.07;6.30;;;15.90;99.90;;;;;;466060;255;28911;-69
2021/09/02 08:33:19;;;;;;;9.37;6.67;;;15.90;99.90;;;;;;466085;255;28934;-70
2021/09/02 08:35:22;;;;;;;10.63;5.93;;;15.90;99.90;;;;;;466138;254;29018;-69
2021/09/02 08:37:22;;;;;;;7.20;5.77;;;15.90;99.90;;;;;;466045;255;28919;-72
2021/09/02 08:39:23;;;;;;;6.63;5.83;;;16.00;99.90;;;;;;465881;255;28891;-72
2021/09/02 08:41:24;;;;;;;7.20;5.83;;;16.10;99.90;;;;;;466078;255;28989;-72
2021/09/02 08:43:25;;;;;;;6.90;5.83;;;16.00;99.90;;;;;;466073;255;29030;-71
2021/09/02 08:45:27;;;;;;;9.53;5.47;;;16.20;99.90;;;;;;465701;255;28926;-71
2021/09/02 08:47:28;;;;;;;7.23;6.27;;;16.30;99.90;;;;;;466077;255;29396;-71
2021/09/02 08:49:29;;;;;;;9.60;6.50;;;16.30;99.90;;;;;;465925;255;29410;-72
2021/09/02 08:51:30;;;;;;;6.67;5.40;;;16.40;99.90;;;;;;466015;255;29396;-70
2021/09/02 08:53:32;;;;;;;7.77;6.20;;;16.40;99.90;;;;;;465858;255;29409;-70
2021/09/02 08:55:34;;;;;;;5.63;5.13;;;16.40;99.90;;;;;;466055;254;28967;-71
2021/09/02 08:57:34;;;;;;;6.93;5.90;;;16.50;99.90;;;;;;465984;255;29015;-72
2021/09/02 08:59:35;;;;;;;6.47;5.43;;;16.60;99.90;;;;;;465926;255;29006;-71
2021/09/02 09:01:37;;;;;;;9.57;5.97;;;16.70;99.90;;;;;;465904;255;28913;-72
2021/09/02 09:03:38;;;;;;;7.07;5.37;;;16.80;99.90;;;;;;465899;255;28986;-72
2021/09/02 09:05:39;;;;;;;7.13;5.50;;;16.90;99.90;;;;;;466078;255;28973;-72
2021/09/02 09:07:40;;;;;;;6.63;5.47;;;16.90;99.90;;;;;;466007;255;28960;-71
2021/09/02 09:09:42;;;;;;;5.97;5.33;;;16.80;99.90;;;;;;466071;255;28894;-72
2021/09/02 09:11:46;;;;;;;6.47;4.87;;;16.70;99.90;;;;;;466094;255;29429;-72
2021/09/02 09:13:44;;;;;;;5.53;5.03;;;17.00;99.90;;;;;;465891;254;29604;-70
2021/09/02 09:15:45;;;;;;;6.73;6.10;;;17.00;99.90;;;;;;466105;254;29383;-71
2021/09/02 09:17:47;;;;;;;6.53;5.57;;;17.00;99.90;;;;;;466051;255;29396;-70
2021/09/02 09:19:54;;;;;;;5.97;4.97;;;16.90;99.90;;;;;;466036;255;28918;-71
2021/09/02 09:21:52;;;;;;;6.73;5.07;;;16.80;99.90;;;;;;465896;255;28890;-72
2021/09/02 09:23:53;;;;;;;5.30;4.80;;;16.90;99.90;;;;;;466010;255;28897;-72
2021/09/02 09:25:54;;;;;;;5.87;5.27;;;16.80;99.90;;;;;;466101;255;28936;-69
2021/09/02 09:27:56;;;;;;;5.90;5.30;;;16.90;99.90;;;;;;466081;255;29013;-69
2021/09/02 09:29:57;;;;;;;5.83;5.17;;;16.90;99.90;;;;;;466081;255;29400;-70
2021/09/02 09:31:58;;;;;;;6.30;5.13;;;16.90;99.90;;;;;;466067;254;29451;-69
2021/09/02 09:34:00;;;;;;;7.40;5.10;;;17.10;99.90;;;;;;466060;255;29516;-70
2021/09/02 09:36:01;;;;;;;7.13;5.27;;;17.50;99.90;;;;;;466080;255;29495;-70
2021/09/02 09:38:02;;;;;;;9.20;5.20;;;17.50;99.90;;;;;;466076;255;28960;-69
2021/09/02 09:40:03;;;;;;;5.87;5.17;;;17.40;99.90;;;;;;465997;255;28993;-70
2021/09/02 09:42:06;;;;;;;5.43;4.93;;;17.40;99.90;;;;;;466041;255;28968;-69
2021/09/02 09:44:06;;;;;;;7.93;5.57;;;17.40;99.90;;;;;;465955;255;28919;-72
2021/09/02 09:46:07;;;;;;;4.90;4.40;;;17.60;99.90;;;;;;465707;255;29073;-72
2021/09/02 09:48:08;;;;;;;6.83;5.40;;;17.70;99.90;;;;;;466066;255;28889;-71
2021/09/02 09:50:10;;;;;;;6.70;5.70;;;18.00;99.90;;;;;;465920;255;28953;-71
2021/09/02 09:52:11;;;;;;;7.60;5.13;;;18.00;99.90;;;;;;465987;255;28974;-71
2021/09/02 09:54:12;;;;;;;6.80;5.60;;;17.70;99.90;;;;;;466073;255;29426;-71
2021/09/02 09:56:13;;;;;;;8.87;5.87;;;17.80;99.90;;;;;;466099;252;29488;-71
2021/09/02 09:58:15;;;;;;;6.13;5.53;;;17.90;99.90;;;;;;466045;255;29311;-71
2021/09/02 10:00:16;;;;;;;9.90;5.23;;;17.90;99.90;;;;;;466066;255;29399;-71
2021/09/02 10:02:17;;;;;;;8.67;5.27;;;18.20;99.90;;;;;;465942;255;28873;-71
2021/09/02 10:04:18;;;;;;;6.37;5.73;;;18.10;99.90;;;;;;465935;255;28889;-71
2021/09/02 10:06:20;;;;;;;7.30;5.77;;;18.10;99.90;;;;;;466086;255;28982;-71
2021/09/02 10:08:21;;;;;;;8.00;6.23;;;18.20;99.90;;;;;;465960;255;28854;-70
2021/09/02 10:10:22;;;;;;;6.50;4.70;;;18.40;99.90;;;;;;466079;255;28928;-71
2021/09/02 10:12:23;;;;;;;6.43;5.33;;;18.40;99.90;;;;;;466019;255;28905;-71
2021/09/02 10:14:25;;;;;;;8.80;5.23;;;18.40;99.90;;;;;;466082;255;28883;-72
2021/09/02 10:16:26;;;;;;;7.90;5.90;;;18.40;99.90;;;;;;466085;255;29003;-70
2021/09/02 10:18:27;;;;;;;5.57;4.80;;;18.40;99.90;;;;;;465830;255;29353;-71
2021/09/02 10:20:28;;;;;;;5.70;5.07;;;18.50;99.90;;;;;;466061;255;29458;-70
2021/09/02 10:22:30;;;;;;;6.20;4.83;;;18.60;99.90;;;;;;465974;255;30135;-72
2021/09/02 10:24:31;;;;;;;6.03;4.93;;;18.60;99.90;;;;;;466059;255;29409;-71
2021/09/02 10:26:32;;;;;;;7.03;5.30;;;18.60;99.90;;;;;;466099;255;28928;-72
2021/09/02 10:28:33;;;;;;;7.70;5.17;;;18.70;99.90;;;;;;466008;255;28975;-70
2021/09/02 10:30:35;;;;;;;6.50;5.33;;;18.80;99.90;;;;;;465918;255;29008;-70
2021/09/02 10:32:36;;;;;;;4.90;4.50;;;18.90;99.90;;;;;;464763;255;28940;-72